Terminal Aerodrome Forecast
Issued by NWS Tulsa, OK

Home | Current Version | Previous Version | Text Only | Print | Product List | Glossary On
Versions: 1 2 3 4 5 6 7 8 9 10 11 12 13
000
FTUS44 KTSA 291700
TAFFSM
TAF
KFSM 291720Z 2918/3018 28011KT P6SM SCT050 BKN110
      TEMPO 2918/2921 1/2SM +TSRA BKN020CB
     FM292100 18007KT P6SM VCSH OVC100
     FM300300 06004KT P6SM SCT250
     FM301500 13005KT P6SM BKN250=

USA.gov is the U.S. government's official web portal to all federal, state and local government web resources and services.